»·PEaware :: N184GS KFUL-L70

N184GS :: KFUL-L70

FLIGHT INFORMATION

Flight Status: Arrived
Operator: Privately registered:
United States
More flights under this callsign
Pilot: Todd T. (13067)
Aircraft: CESSNA 172 SKYHAWK
(C172)
More flights by this aircraft type
Origin: KFUL Fullerton Mun
United States
Destination: L70 Agua Dulce
United States
More flights between these airports :: More routes between these airports
Route: +
File this flight plan on PilotEdge
Remarks:
Altitude:
(Current/Filed)
6,500ft
Speed:
(Current/Filed)
0kts
Departed: 30-Jun-19 02:36 PM
Arrived: 30-Jun-19 03:23 PM
Distance/Time
Traveled:
41nm/0:47
Distance/Time
To Go:
Arrived

Flight Plot

Page will automatically refresh every two minutes.


Map Options




Map Legend


Flown Route
Filed Route
Departure Airport
Arrival Airport
Navaid (VOR, NDB)
Fix

Horizontal Profiles

Position Reports

Time Latitude Longitude Heading Altitude Ground
Speed
30-Jun-19 14:23 33.872827 -117.980910 262 93ft 0kts
30-Jun-19 14:24 33.872451 -117.981373 212 93ft 6kts
30-Jun-19 14:25 33.872189 -117.981171 79 93ft 5kts
30-Jun-19 14:26 33.872579 -117.979160 77 92ft 7kts
30-Jun-19 14:27 33.873083 -117.976686 58 92ft 7kts
30-Jun-19 14:28 33.873235 -117.976248 154 93ft 0kts
30-Jun-19 14:29 33.873235 -117.976248 154 93ft 0kts
30-Jun-19 14:30 33.873202 -117.975934 80 93ft 4kts
30-Jun-19 14:31 33.873207 -117.975890 86 92ft 0kts
30-Jun-19 14:32 33.873207 -117.975890 86 92ft 0kts
30-Jun-19 14:33 33.873207 -117.975890 86 92ft 0kts
30-Jun-19 14:34 33.872716 -117.976223 255 93ft 24kts
30-Jun-19 14:35 33.872870 -117.997782 333 753ft 93kts
30-Jun-19 14:36 33.881308 -117.974116 109 1608ft 92kts
30-Jun-19 14:37 33.874069 -117.946703 108 2507ft 90kts
30-Jun-19 14:38 33.872155 -117.915980 71 3310ft 101kts
30-Jun-19 14:39 33.893553 -117.893841 43 4123ft 101kts
30-Jun-19 14:40 33.919147 -117.872938 39 4406ft 116kts
30-Jun-19 14:42 33.950419 -117.863414 4 4431ft 119kts
30-Jun-19 14:43 33.983268 -117.859839 359 4420ft 117kts
30-Jun-19 14:44 34.012862 -117.869477 334 4447ft 104kts
30-Jun-19 14:45 34.039448 -117.879717 335 4446ft 95kts
30-Jun-19 14:46 34.066581 -117.890172 334 4986ft 99kts
30-Jun-19 14:47 34.088770 -117.900828 291 5812ft 71kts
30-Jun-19 14:48 34.096954 -117.922112 288 6475ft 71kts
30-Jun-19 14:49 34.106705 -117.950329 289 6501ft 93kts
30-Jun-19 14:50 34.114696 -117.974159 288 6503ft 87kts
30-Jun-19 14:51 34.124066 -118.002442 289 6506ft 94kts
30-Jun-19 14:52 34.134056 -118.032592 289 6504ft 97kts
30-Jun-19 14:53 34.144142 -118.063076 289 6504ft 98kts
30-Jun-19 14:54 34.154268 -118.093717 289 6504ft 98kts
30-Jun-19 14:55 34.164477 -118.124638 289 6503ft 97kts
30-Jun-19 14:56 34.174226 -118.154181 289 6503ft 92kts
30-Jun-19 14:56 34.182138 -118.178200 288 6503ft 91kts
30-Jun-19 14:58 34.187943 -118.195833 288 6503ft 91kts
30-Jun-19 14:59 34.197321 -118.224335 288 6503ft 91kts
30-Jun-19 14:59 34.205328 -118.248570 286 6478ft 95kts
30-Jun-19 15:00 34.216178 -118.280142 284 6391ft 105kts
30-Jun-19 15:02 34.229886 -118.316962 290 6391ft 101kts
30-Jun-19 15:02 34.239985 -118.342373 290 6391ft 99kts
30-Jun-19 15:03 34.252236 -118.372609 303 6386ft 102kts
30-Jun-19 15:04 34.272141 -118.397299 313 6400ft 102kts
30-Jun-19 15:05 34.284582 -118.427427 281 6428ft 105kts
30-Jun-19 15:06 34.289841 -118.463205 276 6564ft 109kts
30-Jun-19 15:07 34.293633 -118.498457 290 6265ft 102kts
30-Jun-19 15:08 34.319401 -118.505491 12 5741ft 101kts
30-Jun-19 15:09 34.344581 -118.492327 34 5255ft 99kts
30-Jun-19 15:10 34.365839 -118.472315 46 5140ft 94kts
30-Jun-19 15:11 34.383502 -118.449684 55 4565ft 92kts
30-Jun-19 15:12 34.400848 -118.421785 51 3346ft 94kts
30-Jun-19 15:13 34.417078 -118.399152 53 2725ft 84kts
30-Jun-19 15:14 34.435387 -118.377230 49 2480ft 103kts
30-Jun-19 15:15 34.453909 -118.350403 42 2851ft 106kts
30-Jun-19 15:16 34.475057 -118.326170 28 3350ft 101kts
30-Jun-19 15:17 34.502313 -118.316595 339 3153ft 91kts
30-Jun-19 15:18 34.518676 -118.293845 123 3442ft 93kts
30-Jun-19 15:19 34.506421 -118.308351 236 3156ft 71kts
30-Jun-19 15:20 34.506928 -118.323963 4 3061ft 91kts
30-Jun-19 15:21 34.511750 -118.301810 179 2912ft 72kts
30-Jun-19 15:22 34.504386 -118.311771 269 2663ft 3kts
30-Jun-19 15:23 34.504478 -118.312703 314 2663ft 0kts

Navigation Log

Ident Type
Flight plan parsing failed, navigation log unavailable